sensor_id;sensor_type;location;lat;lon;timestamp;temperature;humidity
66576;SHT31;53428;47.686;16.584;2023-04-24T00:04:23;14.77;78.99
66576;SHT31;53428;47.686;16.584;2023-04-24T00:09:25;14.75;79.32
66576;SHT31;53428;47.686;16.584;2023-04-24T00:14:24;14.69;79.47
66576;SHT31;53428;47.686;16.584;2023-04-24T00:19:23;14.65;79.74
66576;SHT31;53428;47.686;16.584;2023-04-24T00:24:23;14.52;80.30
66576;SHT31;53428;47.686;16.584;2023-04-24T00:29:22;14.39;80.85
66576;SHT31;53428;47.686;16.584;2023-04-24T00:34:21;14.15;81.57
66576;SHT31;53428;47.686;16.584;2023-04-24T00:39:21;14.04;82.05
66576;SHT31;53428;47.686;16.584;2023-04-24T00:44:22;13.87;82.56
66576;SHT31;53428;47.686;16.584;2023-04-24T00:49:21;13.79;82.76
66576;SHT31;53428;47.686;16.584;2023-04-24T00:54:21;13.76;83.09
66576;SHT31;53428;47.686;16.584;2023-04-24T00:59:20;13.58;83.71
66576;SHT31;53428;47.686;16.584;2023-04-24T01:04:20;13.48;84.10
66576;SHT31;53428;47.686;16.584;2023-04-24T01:09:21;13.45;84.26
66576;SHT31;53428;47.686;16.584;2023-04-24T01:14:22;13.40;84.86
66576;SHT31;53428;47.686;16.584;2023-04-24T01:19:21;13.22;85.17
66576;SHT31;53428;47.686;16.584;2023-04-24T01:24:21;13.21;85.65
66576;SHT31;53428;47.686;16.584;2023-04-24T01:29:20;13.02;86.27
66576;SHT31;53428;47.686;16.584;2023-04-24T01:34:20;12.95;87.05
66576;SHT31;53428;47.686;16.584;2023-04-24T01:39:19;13.00;87.12
66576;SHT31;53428;47.686;16.584;2023-04-24T01:44:19;13.00;87.29
66576;SHT31;53428;47.686;16.584;2023-04-24T01:49:19;12.97;87.58
66576;SHT31;53428;47.686;16.584;2023-04-24T01:54:18;13.08;86.84
66576;SHT31;53428;47.686;16.584;2023-04-24T01:59:19;12.83;86.81
66576;SHT31;53428;47.686;16.584;2023-04-24T02:04:19;12.54;86.46
66576;SHT31;53428;47.686;16.584;2023-04-24T02:09:19;12.28;87.19
66576;SHT31;53428;47.686;16.584;2023-04-24T02:14:18;12.14;88.11
66576;SHT31;53428;47.686;16.584;2023-04-24T02:19:17;12.02;87.80
66576;SHT31;53428;47.686;16.584;2023-04-24T02:24:17;11.98;87.92
66576;SHT31;53428;47.686;16.584;2023-04-24T02:29:16;12.02;87.72
66576;SHT31;53428;47.686;16.584;2023-04-24T02:34:16;11.87;88.24
66576;SHT31;53428;47.686;16.584;2023-04-24T02:39:15;11.74;89.10
66576;SHT31;53428;47.686;16.584;2023-04-24T02:44:17;11.74;90.00
66576;SHT31;53428;47.686;16.584;2023-04-24T02:49:17;11.64;90.66
66576;SHT31;53428;47.686;16.584;2023-04-24T02:54:16;11.53;91.31
66576;SHT31;53428;47.686;16.584;2023-04-24T02:59:15;11.31;91.95
66576;SHT31;53428;47.686;16.584;2023-04-24T03:04:15;11.18;92.09
66576;SHT31;53428;47.686;16.584;2023-04-24T03:09:14;10.88;92.16
66576;SHT31;53428;47.686;16.584;2023-04-24T03:14:14;10.65;93.20
66576;SHT31;53428;47.686;16.584;2023-04-24T03:19:13;10.50;94.11
66576;SHT31;53428;47.686;16.584;2023-04-24T03:24:12;10.36;94.87
66576;SHT31;53428;47.686;16.584;2023-04-24T03:29:12;10.50;94.39
66576;SHT31;53428;47.686;16.584;2023-04-24T03:34:11;10.54;93.92
66576;SHT31;53428;47.686;16.584;2023-04-24T03:39:11;10.48;93.92
66576;SHT31;53428;47.686;16.584;2023-04-24T03:44:10;10.47;93.25
66576;SHT31;53428;47.686;16.584;2023-04-24T03:49:09;10.71;92.29
66576;SHT31;53428;47.686;16.584;2023-04-24T03:54:09;10.72;92.44
66576;SHT31;53428;47.686;16.584;2023-04-24T03:59:08;10.67;92.59
66576;SHT31;53428;47.686;16.584;2023-04-24T04:04:07;10.75;92.84
66576;SHT31;53428;47.686;16.584;2023-04-24T04:09:07;10.83;92.55
66576;SHT31;53428;47.686;16.584;2023-04-24T04:14:07;10.79;92.69
66576;SHT31;53428;47.686;16.584;2023-04-24T04:19:06;10.73;93.02
66576;SHT31;53428;47.686;16.584;2023-04-24T04:24:06;10.91;92.53
66576;SHT31;53428;47.686;16.584;2023-04-24T04:29:06;10.98;92.31
66576;SHT31;53428;47.686;16.584;2023-04-24T04:34:05;10.98;92.41
66576;SHT31;53428;47.686;16.584;2023-04-24T04:39:06;11.12;92.00
66576;SHT31;53428;47.686;16.584;2023-04-24T04:44:06;11.29;91.23
66576;SHT31;53428;47.686;16.584;2023-04-24T04:49:07;11.46;90.33
66576;SHT31;53428;47.686;16.584;2023-04-24T04:54:07;11.66;89.93
66576;SHT31;53428;47.686;16.584;2023-04-24T04:59:06;12.08;88.39
66576;SHT31;53428;47.686;16.584;2023-04-24T05:04:06;12.43;86.79
66576;SHT31;53428;47.686;16.584;2023-04-24T05:09:05;12.59;86.07
66576;SHT31;53428;47.686;16.584;2023-04-24T05:14:06;12.61;85.82
66576;SHT31;53428;47.686;16.584;2023-04-24T05:19:05;12.64;85.56
66576;SHT31;53428;47.686;16.584;2023-04-24T05:24:05;12.81;85.11
66576;SHT31;53428;47.686;16.584;2023-04-24T05:29:04;12.81;85.00
66576;SHT31;53428;47.686;16.584;2023-04-24T05:34:04;12.65;85.44
66576;SHT31;53428;47.686;16.584;2023-04-24T05:39:04;12.94;83.55
66576;SHT31;53428;47.686;16.584;2023-04-24T05:44:04;13.07;83.66
66576;SHT31;53428;47.686;16.584;2023-04-24T05:49:03;13.15;83.46
66576;SHT31;53428;47.686;16.584;2023-04-24T05:54:03;13.04;83.40
66576;SHT31;53428;47.686;16.584;2023-04-24T05:59:02;13.29;82.67
66576;SHT31;53428;47.686;16.584;2023-04-24T06:04:03;13.63;81.65
66576;SHT31;53428;47.686;16.584;2023-04-24T06:09:02;13.76;81.64
66576;SHT31;53428;47.686;16.584;2023-04-24T06:14:02;14.32;79.79
66576;SHT31;53428;47.686;16.584;2023-04-24T06:19:01;14.61;78.04
66576;SHT31;53428;47.686;16.584;2023-04-24T06:24:01;14.79;76.14
66576;SHT31;53428;47.686;16.584;2023-04-24T06:29:01;14.89;75.85
66576;SHT31;53428;47.686;16.584;2023-04-24T06:34:00;15.30;74.67
66576;SHT31;53428;47.686;16.584;2023-04-24T06:39:01;15.69;73.59
66576;SHT31;53428;47.686;16.584;2023-04-24T06:44:00;15.73;75.24
66576;SHT31;53428;47.686;16.584;2023-04-24T06:49:00;15.81;77.53
66576;SHT31;53428;47.686;16.584;2023-04-24T06:53:59;15.81;77.10
66576;SHT31;53428;47.686;16.584;2023-04-24T06:58:59;16.12;75.44
66576;SHT31;53428;47.686;16.584;2023-04-24T07:03:58;16.40;74.55
66576;SHT31;53428;47.686;16.584;2023-04-24T07:08:59;16.06;74.89
66576;SHT31;53428;47.686;16.584;2023-04-24T07:13:59;15.96;75.73
66576;SHT31;53428;47.686;16.584;2023-04-24T07:18:59;16.16;75.44
66576;SHT31;53428;47.686;16.584;2023-04-24T07:24:00;15.93;76.24
66576;SHT31;53428;47.686;16.584;2023-04-24T07:29:01;16.30;75.30
66576;SHT31;53428;47.686;16.584;2023-04-24T07:34:00;16.24;75.40
66576;SHT31;53428;47.686;16.584;2023-04-24T07:39:00;16.23;75.50
66576;SHT31;53428;47.686;16.584;2023-04-24T07:43:59;15.99;76.21
66576;SHT31;53428;47.686;16.584;2023-04-24T07:48:59;16.17;76.35
66576;SHT31;53428;47.686;16.584;2023-04-24T07:54:00;16.16;76.09
66576;SHT31;53428;47.686;16.584;2023-04-24T07:59:00;15.63;78.11
66576;SHT31;53428;47.686;16.584;2023-04-24T08:04:00;15.75;77.61
66576;SHT31;53428;47.686;16.584;2023-04-24T08:09:00;15.63;77.92
66576;SHT31;53428;47.686;16.584;2023-04-24T08:13:59;15.68;77.58
66576;SHT31;53428;47.686;16.584;2023-04-24T08:18:59;15.58;77.62
66576;SHT31;53428;47.686;16.584;2023-04-24T08:23:58;15.23;79.36
66576;SHT31;53428;47.686;16.584;2023-04-24T08:28:58;15.37;78.43
66576;SHT31;53428;47.686;16.584;2023-04-24T08:33:57;15.07;78.66
66576;SHT31;53428;47.686;16.584;2023-04-24T08:38:56;15.04;79.28
66576;SHT31;53428;47.686;16.584;2023-04-24T08:43:56;14.84;80.91
66576;SHT31;53428;47.686;16.584;2023-04-24T08:48:57;14.41;85.15
66576;SHT31;53428;47.686;16.584;2023-04-24T08:53:57;14.17;87.44
66576;SHT31;53428;47.686;16.584;2023-04-24T08:58:57;14.00;88.45
66576;SHT31;53428;47.686;16.584;2023-04-24T09:03:56;13.94;89.32
66576;SHT31;53428;47.686;16.584;2023-04-24T09:08:59;13.91;88.71
66576;SHT31;53428;47.686;16.584;2023-04-24T09:13:59;13.86;89.36
66576;SHT31;53428;47.686;16.584;2023-04-24T09:18:59;13.80;89.75
66576;SHT31;53428;47.686;16.584;2023-04-24T09:24:00;13.81;90.20
66576;SHT31;53428;47.686;16.584;2023-04-24T09:29:00;13.93;89.48
66576;SHT31;53428;47.686;16.584;2023-04-24T09:34:02;13.91;88.24
66576;SHT31;53428;47.686;16.584;2023-04-24T09:39:17;13.90;86.30
66576;SHT31;53428;47.686;16.584;2023-04-24T09:44:29;13.84;86.85
66576;SHT31;53428;47.686;16.584;2023-04-24T09:49:30;13.87;87.11
66576;SHT31;53428;47.686;16.584;2023-04-24T09:54:31;13.76;88.22
66576;SHT31;53428;47.686;16.584;2023-04-24T09:59:30;13.69;88.73
66576;SHT31;53428;47.686;16.584;2023-04-24T10:04:29;13.46;89.81
66576;SHT31;53428;47.686;16.584;2023-04-24T10:09:29;13.31;90.50
66576;SHT31;53428;47.686;16.584;2023-04-24T10:14:29;13.22;90.22
66576;SHT31;53428;47.686;16.584;2023-04-24T10:19:29;13.12;90.98
66576;SHT31;53428;47.686;16.584;2023-04-24T10:24:29;12.90;92.13
66576;SHT31;53428;47.686;16.584;2023-04-24T10:29:30;12.94;92.99
66576;SHT31;53428;47.686;16.584;2023-04-24T10:34:30;13.12;92.13
66576;SHT31;53428;47.686;16.584;2023-04-24T10:39:29;13.36;92.37
66576;SHT31;53428;47.686;16.584;2023-04-24T10:44:36;13.46;89.15
66576;SHT31;53428;47.686;16.584;2023-04-24T10:49:35;13.53;90.26
66576;SHT31;53428;47.686;16.584;2023-04-24T10:54:45;13.46;87.43
66576;SHT31;53428;47.686;16.584;2023-04-24T10:59:46;13.63;85.92
66576;SHT31;53428;47.686;16.584;2023-04-24T11:04:45;13.73;83.02
66576;SHT31;53428;47.686;16.584;2023-04-24T11:09:45;14.20;82.10
66576;SHT31;53428;47.686;16.584;2023-04-24T11:20:07;14.68;77.06
66576;SHT31;53428;47.686;16.584;2023-04-24T11:25:09;15.27;76.91
66576;SHT31;53428;47.686;16.584;2023-04-24T11:30:10;14.39;75.07
66576;SHT31;53428;47.686;16.584;2023-04-24T11:35:21;14.66;74.01
66576;SHT31;53428;47.686;16.584;2023-04-24T11:40:23;14.92;74.85
66576;SHT31;53428;47.686;16.584;2023-04-24T11:45:29;14.92;74.04
66576;SHT31;53428;47.686;16.584;2023-04-24T11:50:28;14.62;73.85
66576;SHT31;53428;47.686;16.584;2023-04-24T11:55:29;14.65;73.71
66576;SHT31;53428;47.686;16.584;2023-04-24T12:00:30;14.77;73.01
66576;SHT31;53428;47.686;16.584;2023-04-24T12:05:30;14.56;74.01
66576;SHT31;53428;47.686;16.584;2023-04-24T12:10:33;14.36;74.53
66576;SHT31;53428;47.686;16.584;2023-04-24T12:15:33;14.27;74.82
66576;SHT31;53428;47.686;16.584;2023-04-24T12:20:33;14.11;76.60
66576;SHT31;53428;47.686;16.584;2023-04-24T12:25:32;14.32;75.61
66576;SHT31;53428;47.686;16.584;2023-04-24T12:30:50;14.51;75.68
66576;SHT31;53428;47.686;16.584;2023-04-24T12:35:54;14.61;75.54
66576;SHT31;53428;47.686;16.584;2023-04-24T12:41:02;14.29;75.79
66576;SHT31;53428;47.686;16.584;2023-04-24T12:46:03;14.97;74.87
66576;SHT31;53428;47.686;16.584;2023-04-24T12:51:03;14.84;75.54
66576;SHT31;53428;47.686;16.584;2023-04-24T12:56:03;14.52;76.40
66576;SHT31;53428;47.686;16.584;2023-04-24T13:01:02;14.61;77.82
66576;SHT31;53428;47.686;16.584;2023-04-24T13:06:01;14.93;75.86
66576;SHT31;53428;47.686;16.584;2023-04-24T13:11:01;14.94;75.74
66576;SHT31;53428;47.686;16.584;2023-04-24T13:16:00;14.92;76.28
66576;SHT31;53428;47.686;16.584;2023-04-24T13:20:59;14.76;75.63
66576;SHT31;53428;47.686;16.584;2023-04-24T13:25:58;14.69;75.12
66576;SHT31;53428;47.686;16.584;2023-04-24T13:30:58;14.42;76.10
66576;SHT31;53428;47.686;16.584;2023-04-24T13:35:59;14.52;76.29
66576;SHT31;53428;47.686;16.584;2023-04-24T13:40:58;14.24;76.52
66576;SHT31;53428;47.686;16.584;2023-04-24T13:45:58;14.42;76.42
66576;SHT31;53428;47.686;16.584;2023-04-24T13:50:58;14.51;77.08
66576;SHT31;53428;47.686;16.584;2023-04-24T13:55:57;14.61;77.35
66576;SHT31;53428;47.686;16.584;2023-04-24T14:00:56;14.65;79.02
66576;SHT31;53428;47.686;16.584;2023-04-24T14:05:55;14.45;78.81
66576;SHT31;53428;47.686;16.584;2023-04-24T14:10:55;13.98;79.89
66576;SHT31;53428;47.686;16.584;2023-04-24T14:15:54;13.90;80.13
66576;SHT31;53428;47.686;16.584;2023-04-24T14:20:53;13.93;81.97
66576;SHT31;53428;47.686;16.584;2023-04-24T14:25:53;13.98;82.44
66576;SHT31;53428;47.686;16.584;2023-04-24T14:30:52;13.88;82.36
66576;SHT31;53428;47.686;16.584;2023-04-24T14:35:52;13.91;83.06
66576;SHT31;53428;47.686;16.584;2023-04-24T14:40:51;13.74;82.30
66576;SHT31;53428;47.686;16.584;2023-04-24T14:45:50;13.77;82.90
66576;SHT31;53428;47.686;16.584;2023-04-24T14:50:49;13.69;84.04
66576;SHT31;53428;47.686;16.584;2023-04-24T14:55:49;13.58;84.74
66576;SHT31;53428;47.686;16.584;2023-04-24T15:00:48;13.53;85.54
66576;SHT31;53428;47.686;16.584;2023-04-24T15:05:51;13.48;85.07
66576;SHT31;53428;47.686;16.584;2023-04-24T15:10:50;13.16;85.63
66576;SHT31;53428;47.686;16.584;2023-04-24T15:15:49;12.97;86.29
66576;SHT31;53428;47.686;16.584;2023-04-24T15:20:49;12.90;86.02
66576;SHT31;53428;47.686;16.584;2023-04-24T15:25:50;12.90;87.28
66576;SHT31;53428;47.686;16.584;2023-04-24T15:31:10;12.79;87.12
66576;SHT31;53428;47.686;16.584;2023-04-24T15:36:10;12.83;87.51
66576;SHT31;53428;47.686;16.584;2023-04-24T15:41:10;12.83;88.42
66576;SHT31;53428;47.686;16.584;2023-04-24T15:46:09;12.87;89.58
66576;SHT31;53428;47.686;16.584;2023-04-24T15:51:08;12.76;89.66
66576;SHT31;53428;47.686;16.584;2023-04-24T15:56:08;12.83;90.47
66576;SHT31;53428;47.686;16.584;2023-04-24T16:01:08;12.70;91.06
66576;SHT31;53428;47.686;16.584;2023-04-24T16:06:07;12.49;90.56
66576;SHT31;53428;47.686;16.584;2023-04-24T16:11:07;12.43;91.93
66576;SHT31;53428;47.686;16.584;2023-04-24T16:16:06;12.30;91.91
66576;SHT31;53428;47.686;16.584;2023-04-24T16:21:05;12.22;91.52
66576;SHT31;53428;47.686;16.584;2023-04-24T16:26:07;11.99;90.50
66576;SHT31;53428;47.686;16.584;2023-04-24T16:31:06;11.85;92.61
66576;SHT31;53428;47.686;16.584;2023-04-24T16:36:05;11.70;90.49
66576;SHT31;53428;47.686;16.584;2023-04-24T16:41:06;11.54;88.87
66576;SHT31;53428;47.686;16.584;2023-04-24T16:46:06;11.41;87.64
66576;SHT31;53428;47.686;16.584;2023-04-24T16:51:06;11.27;86.74
66576;SHT31;53428;47.686;16.584;2023-04-24T16:56:08;11.24;85.50
66576;SHT31;53428;47.686;16.584;2023-04-24T17:01:11;11.15;86.59
66576;SHT31;53428;47.686;16.584;2023-04-24T17:06:11;11.18;85.42
66576;SHT31;53428;47.686;16.584;2023-04-24T17:11:10;11.15;85.11
66576;SHT31;53428;47.686;16.584;2023-04-24T17:16:10;11.02;86.65
66576;SHT31;53428;47.686;16.584;2023-04-24T17:21:09;11.00;87.55
66576;SHT31;53428;47.686;16.584;2023-04-24T17:26:09;11.00;88.84
66576;SHT31;53428;47.686;16.584;2023-04-24T17:31:10;10.96;89.92
66576;SHT31;53428;47.686;16.584;2023-04-24T17:36:10;10.96;88.92
66576;SHT31;53428;47.686;16.584;2023-04-24T17:41:09;10.91;88.98
66576;SHT31;53428;47.686;16.584;2023-04-24T17:46:09;10.86;89.33
66576;SHT31;53428;47.686;16.584;2023-04-24T17:51:09;10.83;88.75
66576;SHT31;53428;47.686;16.584;2023-04-24T17:56:09;10.81;88.69
66576;SHT31;53428;47.686;16.584;2023-04-24T18:01:08;10.93;88.40
66576;SHT31;53428;47.686;16.584;2023-04-24T18:06:07;10.98;87.49
66576;SHT31;53428;47.686;16.584;2023-04-24T18:11:08;10.99;87.89
66576;SHT31;53428;47.686;16.584;2023-04-24T18:16:07;11.08;87.07
66576;SHT31;53428;47.686;16.584;2023-04-24T18:21:07;11.02;87.70
66576;SHT31;53428;47.686;16.584;2023-04-24T18:26:07;10.99;88.36
66576;SHT31;53428;47.686;16.584;2023-04-24T18:31:06;10.93;88.51
66576;SHT31;53428;47.686;16.584;2023-04-24T18:36:07;10.78;89.47
66576;SHT31;53428;47.686;16.584;2023-04-24T18:41:06;10.76;89.93
66576;SHT31;53428;47.686;16.584;2023-04-24T18:46:07;10.82;89.66
66576;SHT31;53428;47.686;16.584;2023-04-24T18:51:07;10.85;89.88
66576;SHT31;53428;47.686;16.584;2023-04-24T18:56:07;10.79;90.01
66576;SHT31;53428;47.686;16.584;2023-04-24T19:01:06;10.76;90.35
66576;SHT31;53428;47.686;16.584;2023-04-24T19:06:06;10.85;88.94
66576;SHT31;53428;47.686;16.584;2023-04-24T19:11:06;10.88;88.47
66576;SHT31;53428;47.686;16.584;2023-04-24T19:16:05;10.91;87.22
66576;SHT31;53428;47.686;16.584;2023-04-24T19:21:04;10.92;85.61
66576;SHT31;53428;47.686;16.584;2023-04-24T19:26:05;10.99;84.48
66576;SHT31;53428;47.686;16.584;2023-04-24T19:31:04;11.05;83.02
66576;SHT31;53428;47.686;16.584;2023-04-24T19:36:04;11.15;82.02
66576;SHT31;53428;47.686;16.584;2023-04-24T19:41:05;11.13;82.05
66576;SHT31;53428;47.686;16.584;2023-04-24T19:46:05;11.20;81.55
66576;SHT31;53428;47.686;16.584;2023-04-24T19:51:04;11.30;80.33
66576;SHT31;53428;47.686;16.584;2023-04-24T19:56:04;11.40;79.18
66576;SHT31;53428;47.686;16.584;2023-04-24T20:01:03;11.73;76.60
66576;SHT31;53428;47.686;16.584;2023-04-24T20:06:04;11.95;75.07
66576;SHT31;53428;47.686;16.584;2023-04-24T20:11:04;12.01;74.15
66576;SHT31;53428;47.686;16.584;2023-04-24T20:16:04;12.14;73.34
66576;SHT31;53428;47.686;16.584;2023-04-24T20:21:07;12.01;73.73
66576;SHT31;53428;47.686;16.584;2023-04-24T20:26:07;12.04;73.64
66576;SHT31;53428;47.686;16.584;2023-04-24T20:31:08;11.98;74.60
66576;SHT31;53428;47.686;16.584;2023-04-24T20:36:07;11.95;75.20
66576;SHT31;53428;47.686;16.584;2023-04-24T20:41:09;11.91;75.53
66576;SHT31;53428;47.686;16.584;2023-04-24T20:46:09;11.81;76.21
66576;SHT31;53428;47.686;16.584;2023-04-24T20:51:09;11.71;76.53
66576;SHT31;53428;47.686;16.584;2023-04-24T20:56:08;11.68;76.46
66576;SHT31;53428;47.686;16.584;2023-04-24T21:01:09;11.71;75.38
66576;SHT31;53428;47.686;16.584;2023-04-24T21:06:09;11.74;75.06
66576;SHT31;53428;47.686;16.584;2023-04-24T21:11:08;11.77;74.58
66576;SHT31;53428;47.686;16.584;2023-04-24T21:16:08;11.70;74.96
66576;SHT31;53428;47.686;16.584;2023-04-24T21:21:07;11.57;75.46
66576;SHT31;53428;47.686;16.584;2023-04-24T21:26:07;11.56;75.60
66576;SHT31;53428;47.686;16.584;2023-04-24T21:31:06;11.50;75.38
66576;SHT31;53428;47.686;16.584;2023-04-24T21:36:06;11.54;74.79
66576;SHT31;53428;47.686;16.584;2023-04-24T21:41:05;11.58;74.49
66576;SHT31;53428;47.686;16.584;2023-04-24T21:46:05;11.64;73.61
66576;SHT31;53428;47.686;16.584;2023-04-24T21:51:04;11.71;73.01
66576;SHT31;53428;47.686;16.584;2023-04-24T21:56:04;11.77;72.56
66576;SHT31;53428;47.686;16.584;2023-04-24T22:01:03;11.70;72.65
66576;SHT31;53428;47.686;16.584;2023-04-24T22:06:03;11.67;73.10
66576;SHT31;53428;47.686;16.584;2023-04-24T22:11:02;11.48;73.98
66576;SHT31;53428;47.686;16.584;2023-04-24T22:16:02;11.57;72.63
66576;SHT31;53428;47.686;16.584;2023-04-24T22:21:02;11.56;72.31
66576;SHT31;53428;47.686;16.584;2023-04-24T22:26:01;11.58;71.71
66576;SHT31;53428;47.686;16.584;2023-04-24T22:31:01;11.56;71.69
66576;SHT31;53428;47.686;16.584;2023-04-24T22:36:00;11.67;70.23
66576;SHT31;53428;47.686;16.584;2023-04-24T22:40:59;11.71;69.68
66576;SHT31;53428;47.686;16.584;2023-04-24T22:45:59;11.74;69.05
66576;SHT31;53428;47.686;16.584;2023-04-24T22:50:58;11.81;68.19
66576;SHT31;53428;47.686;16.584;2023-04-24T22:55:57;11.79;68.05
66576;SHT31;53428;47.686;16.584;2023-04-24T23:00:56;11.71;68.24
66576;SHT31;53428;47.686;16.584;2023-04-24T23:05:56;11.67;68.32
66576;SHT31;53428;47.686;16.584;2023-04-24T23:10:55;11.64;68.53
66576;SHT31;53428;47.686;16.584;2023-04-24T23:15:55;11.56;68.84
66576;SHT31;53428;47.686;16.584;2023-04-24T23:20:54;11.50;69.28
66576;SHT31;53428;47.686;16.584;2023-04-24T23:25:54;11.40;69.80
66576;SHT31;53428;47.686;16.584;2023-04-24T23:30:53;11.33;70.17
66576;SHT31;53428;47.686;16.584;2023-04-24T23:35:53;11.27;70.73
66576;SHT31;53428;47.686;16.584;2023-04-24T23:40:52;11.16;71.09
66576;SHT31;53428;47.686;16.584;2023-04-24T23:45:52;11.16;70.73
66576;SHT31;53428;47.686;16.584;2023-04-24T23:50:51;11.29;69.99
66576;SHT31;53428;47.686;16.584;2023-04-24T23:55:51;11.31;69.95
